sensor_id;sensor_type;location;lat;lon;timestamp;pressure;altitude;pressure_sealevel;temperature;humidity
60069;BME280;45945;53.350;55.922;2022-08-19T00:00:19;101019.38;;;14.22;45.83
60069;BME280;45945;53.350;55.922;2022-08-19T00:01:21;101007.03;;;14.19;45.68
60069;BME280;45945;53.350;55.922;2022-08-19T00:02:22;101012.41;;;14.22;45.74
60069;BME280;45945;53.350;55.922;2022-08-19T00:03:23;101015.78;;;14.18;46.18
60069;BME280;45945;53.350;55.922;2022-08-19T00:04:28;101013.84;;;14.11;46.37
60069;BME280;45945;53.350;55.922;2022-08-19T00:05:29;101022.47;;;14.07;46.21
60069;BME280;45945;53.350;55.922;2022-08-19T00:06:30;101021.53;;;14.05;46.42
60069;BME280;45945;53.350;55.922;2022-08-19T00:07:31;101017.63;;;13.90;46.34
60069;BME280;45945;53.350;55.922;2022-08-19T00:08:32;101026.41;;;13.91;46.93
60069;BME280;45945;53.350;55.922;2022-08-19T00:09:34;101020.31;;;13.93;47.05
60069;BME280;45945;53.350;55.922;2022-08-19T00:10:35;101024.97;;;14.02;46.60
60069;BME280;45945;53.350;55.922;2022-08-19T00:11:37;101010.69;;;13.92;46.62
60069;BME280;45945;53.350;55.922;2022-08-19T00:12:38;101025.84;;;14.01;46.66
60069;BME280;45945;53.350;55.922;2022-08-19T00:13:39;101030.34;;;14.07;46.36
60069;BME280;45945;53.350;55.922;2022-08-19T00:14:41;101031.06;;;13.99;47.01
60069;BME280;45945;53.350;55.922;2022-08-19T00:15:42;101036.31;;;13.99;46.88
60069;BME280;45945;53.350;55.922;2022-08-19T00:16:45;101041.66;;;14.03;46.98
60069;BME280;45945;53.350;55.922;2022-08-19T00:17:48;101043.38;;;14.02;46.83
60069;BME280;45945;53.350;55.922;2022-08-19T00:18:49;101048.63;;;14.02;46.81
60069;BME280;45945;53.350;55.922;2022-08-19T00:19:51;101051.09;;;13.96;47.09
60069;BME280;45945;53.350;55.922;2022-08-19T00:20:52;101052.88;;;13.97;47.44
60069;BME280;45945;53.350;55.922;2022-08-19T00:21:53;101058.13;;;13.97;46.86
60069;BME280;45945;53.350;55.922;2022-08-19T00:22:56;101050.06;;;13.91;47.11
60069;BME280;45945;53.350;55.922;2022-08-19T00:23:58;101052.84;;;13.95;47.04
60069;BME280;45945;53.350;55.922;2022-08-19T00:24:59;101057.09;;;13.92;47.23
60069;BME280;45945;53.350;55.922;2022-08-19T00:26:00;101063.00;;;13.83;47.87
60069;BME280;45945;53.350;55.922;2022-08-19T00:27:01;101067.56;;;13.90;47.45
60069;BME280;45945;53.350;55.922;2022-08-19T00:28:03;101077.88;;;13.84;47.65
60069;BME280;45945;53.350;55.922;2022-08-19T00:29:06;101070.13;;;13.89;47.58
60069;BME280;45945;53.350;55.922;2022-08-19T00:30:08;101072.88;;;13.92;47.86
60069;BME280;45945;53.350;55.922;2022-08-19T00:31:10;101073.41;;;13.80;48.52
60069;BME280;45945;53.350;55.922;2022-08-19T00:32:11;101090.34;;;13.90;48.55
60069;BME280;45945;53.350;55.922;2022-08-19T00:33:12;101087.47;;;13.82;48.96
60069;BME280;45945;53.350;55.922;2022-08-19T00:34:14;101088.13;;;13.75;49.57
60069;BME280;45945;53.350;55.922;2022-08-19T00:35:15;101094.13;;;13.71;50.00
60069;BME280;45945;53.350;55.922;2022-08-19T00:36:18;101092.22;;;13.65;49.98
60069;BME280;45945;53.350;55.922;2022-08-19T00:37:23;101098.13;;;13.58;50.45
60069;BME280;45945;53.350;55.922;2022-08-19T00:38:27;101095.59;;;13.61;50.45
60069;BME280;45945;53.350;55.922;2022-08-19T00:39:28;101105.84;;;13.53;50.99
60069;BME280;45945;53.350;55.922;2022-08-19T00:40:30;101097.59;;;13.41;51.30
60069;BME280;45945;53.350;55.922;2022-08-19T00:41:31;101096.56;;;13.37;51.17
60069;BME280;45945;53.350;55.922;2022-08-19T00:42:33;101095.50;;;13.32;51.50
60069;BME280;45945;53.350;55.922;2022-08-19T00:43:34;101102.16;;;13.22;52.15
60069;BME280;45945;53.350;55.922;2022-08-19T00:44:35;101111.75;;;13.20;50.97
60069;BME280;45945;53.350;55.922;2022-08-19T00:45:36;101098.75;;;13.25;50.99
60069;BME280;45945;53.350;55.922;2022-08-19T00:46:40;101104.28;;;13.33;51.19
60069;BME280;45945;53.350;55.922;2022-08-19T00:47:41;101100.31;;;13.18;52.24
60069;BME280;45945;53.350;55.922;2022-08-19T00:48:42;101112.06;;;13.29;51.61
60069;BME280;45945;53.350;55.922;2022-08-19T00:49:56;101104.44;;;13.37;50.80
60069;BME280;45945;53.350;55.922;2022-08-19T00:50:58;101114.97;;;13.37;51.59
60069;BME280;45945;53.350;55.922;2022-08-19T00:52:14;101112.47;;;13.42;50.96
60069;BME280;45945;53.350;55.922;2022-08-19T00:53:20;101117.31;;;13.29;51.65
60069;BME280;45945;53.350;55.922;2022-08-19T00:54:22;101108.13;;;13.17;51.92
60069;BME280;45945;53.350;55.922;2022-08-19T00:55:26;101110.59;;;13.12;52.46
60069;BME280;45945;53.350;55.922;2022-08-19T00:56:29;101111.50;;;13.12;52.55
60069;BME280;45945;53.350;55.922;2022-08-19T00:57:37;101124.72;;;13.16;52.63
60069;BME280;45945;53.350;55.922;2022-08-19T00:58:38;101121.88;;;13.09;53.40
60069;BME280;45945;53.350;55.922;2022-08-19T00:59:42;101126.31;;;13.10;53.25
60069;BME280;45945;53.350;55.922;2022-08-19T01:00:46;101128.19;;;13.15;53.23
60069;BME280;45945;53.350;55.922;2022-08-19T01:01:47;101120.25;;;13.13;52.99
60069;BME280;45945;53.350;55.922;2022-08-19T01:02:48;101122.00;;;13.12;53.29
60069;BME280;45945;53.350;55.922;2022-08-19T01:03:49;101128.19;;;13.15;53.35
60069;BME280;45945;53.350;55.922;2022-08-19T01:04:50;101130.97;;;13.19;53.18
60069;BME280;45945;53.350;55.922;2022-08-19T01:05:52;101126.53;;;13.17;53.54
60069;BME280;45945;53.350;55.922;2022-08-19T01:06:56;101127.25;;;13.12;54.14
60069;BME280;45945;53.350;55.922;2022-08-19T01:08:00;101136.16;;;13.18;53.58
60069;BME280;45945;53.350;55.922;2022-08-19T01:09:02;101126.72;;;13.23;52.75
60069;BME280;45945;53.350;55.922;2022-08-19T01:10:05;101133.47;;;13.16;53.59
60069;BME280;45945;53.350;55.922;2022-08-19T01:11:07;101133.13;;;13.05;53.96
60069;BME280;45945;53.350;55.922;2022-08-19T01:12:11;101132.97;;;13.01;54.38
60069;BME280;45945;53.350;55.922;2022-08-19T01:13:14;101141.72;;;13.01;54.09
60069;BME280;45945;53.350;55.922;2022-08-19T01:14:16;101147.34;;;12.86;54.87
60069;BME280;45945;53.350;55.922;2022-08-19T01:15:22;101147.72;;;12.97;54.65
60069;BME280;45945;53.350;55.922;2022-08-19T01:16:27;101132.84;;;12.98;55.07
60069;BME280;45945;53.350;55.922;2022-08-19T01:17:28;101138.06;;;12.96;54.68
60069;BME280;45945;53.350;55.922;2022-08-19T01:18:31;101138.81;;;12.93;54.59
60069;BME280;45945;53.350;55.922;2022-08-19T01:19:36;101146.03;;;12.99;54.74
60069;BME280;45945;53.350;55.922;2022-08-19T01:20:39;101149.50;;;12.98;55.03
60069;BME280;45945;53.350;55.922;2022-08-19T01:21:46;101154.63;;;12.95;55.31
60069;BME280;45945;53.350;55.922;2022-08-19T01:22:55;101159.81;;;12.93;54.94
60069;BME280;45945;53.350;55.922;2022-08-19T01:23:58;101162.44;;;12.93;55.09
60069;BME280;45945;53.350;55.922;2022-08-19T01:25:00;101152.97;;;12.97;54.76
60069;BME280;45945;53.350;55.922;2022-08-19T01:26:01;101156.47;;;12.98;55.09
60069;BME280;45945;53.350;55.922;2022-08-19T01:27:06;101166.22;;;13.00;54.70
60069;BME280;45945;53.350;55.922;2022-08-19T01:28:07;101172.22;;;12.98;54.99
60069;BME280;45945;53.350;55.922;2022-08-19T01:29:09;101174.84;;;12.98;55.33
60069;BME280;45945;53.350;55.922;2022-08-19T01:30:20;101173.06;;;12.97;54.67
60069;BME280;45945;53.350;55.922;2022-08-19T01:31:25;101176.50;;;12.94;55.43
60069;BME280;45945;53.350;55.922;2022-08-19T01:32:27;101175.69;;;12.97;54.80
60069;BME280;45945;53.350;55.922;2022-08-19T01:33:28;101177.38;;;12.94;55.12
60069;BME280;45945;53.350;55.922;2022-08-19T01:34:31;101184.53;;;12.99;55.37
60069;BME280;45945;53.350;55.922;2022-08-19T01:35:35;101179.66;;;12.85;56.36
60069;BME280;45945;53.350;55.922;2022-08-19T01:36:40;101195.47;;;12.87;56.46
60069;BME280;45945;53.350;55.922;2022-08-19T01:37:44;101197.06;;;12.59;57.67
60069;BME280;45945;53.350;55.922;2022-08-19T01:38:46;101194.22;;;12.53;57.69
60069;BME280;45945;53.350;55.922;2022-08-19T01:39:46;101189.03;;;12.54;57.34
60069;BME280;45945;53.350;55.922;2022-08-19T01:40:48;101187.25;;;12.53;58.05
60069;BME280;45945;53.350;55.922;2022-08-19T01:41:49;101200.03;;;12.44;58.64
60069;BME280;45945;53.350;55.922;2022-08-19T01:42:51;101203.53;;;12.45;58.85
60069;BME280;45945;53.350;55.922;2022-08-19T01:43:53;101201.91;;;12.26;59.20
60069;BME280;45945;53.350;55.922;2022-08-19T01:44:54;101190.53;;;12.25;59.00
60069;BME280;45945;53.350;55.922;2022-08-19T01:45:55;101212.28;;;12.22;59.37
60069;BME280;45945;53.350;55.922;2022-08-19T01:46:56;101191.50;;;12.27;58.62
60069;BME280;45945;53.350;55.922;2022-08-19T01:47:57;101198.72;;;12.33;58.88
60069;BME280;45945;53.350;55.922;2022-08-19T01:48:58;101191.94;;;12.38;58.91
60069;BME280;45945;53.350;55.922;2022-08-19T01:49:59;101197.88;;;12.34;58.47
60069;BME280;45945;53.350;55.922;2022-08-19T01:51:00;101197.59;;;12.26;58.96
60069;BME280;45945;53.350;55.922;2022-08-19T01:52:03;101204.59;;;12.27;59.04
60069;BME280;45945;53.350;55.922;2022-08-19T01:53:07;101203.88;;;12.09;59.30
60069;BME280;45945;53.350;55.922;2022-08-19T01:54:11;101202.88;;;12.05;59.69
60069;BME280;45945;53.350;55.922;2022-08-19T01:55:16;101197.03;;;12.12;59.52
60069;BME280;45945;53.350;55.922;2022-08-19T01:56:18;101176.78;;;12.08;59.66
60069;BME280;45945;53.350;55.922;2022-08-19T01:57:19;101200.03;;;12.21;59.63
60069;BME280;45945;53.350;55.922;2022-08-19T01:58:24;101202.53;;;12.41;58.92
60069;BME280;45945;53.350;55.922;2022-08-19T01:59:32;101201.63;;;12.40;58.36
60069;BME280;45945;53.350;55.922;2022-08-19T02:00:33;101218.38;;;12.44;58.16
60069;BME280;45945;53.350;55.922;2022-08-19T02:01:34;101213.91;;;12.41;58.71
60069;BME280;45945;53.350;55.922;2022-08-19T02:02:36;101205.03;;;12.38;58.66
60069;BME280;45945;53.350;55.922;2022-08-19T02:03:37;101214.84;;;12.44;58.60
60069;BME280;45945;53.350;55.922;2022-08-19T02:04:38;101210.34;;;12.39;58.44
60069;BME280;45945;53.350;55.922;2022-08-19T02:05:40;101213.03;;;12.41;58.79
60069;BME280;45945;53.350;55.922;2022-08-19T02:06:41;101220.16;;;12.45;58.42
60069;BME280;45945;53.350;55.922;2022-08-19T02:07:42;101222.94;;;12.50;58.53
60069;BME280;45945;53.350;55.922;2022-08-19T02:08:43;101229.06;;;12.49;59.15
60069;BME280;45945;53.350;55.922;2022-08-19T02:09:46;101226.38;;;12.47;59.45
60069;BME280;45945;53.350;55.922;2022-08-19T02:10:48;101227.91;;;12.42;59.31
60069;BME280;45945;53.350;55.922;2022-08-19T02:11:50;101225.00;;;12.34;59.79
60069;BME280;45945;53.350;55.922;2022-08-19T02:12:51;101228.69;;;12.39;59.51
60069;BME280;45945;53.350;55.922;2022-08-19T02:13:55;101232.50;;;12.48;59.46
60069;BME280;45945;53.350;55.922;2022-08-19T02:14:56;101230.63;;;12.45;59.28
60069;BME280;45945;53.350;55.922;2022-08-19T02:15:57;101242.28;;;12.52;59.64
60069;BME280;45945;53.350;55.922;2022-08-19T02:16:58;101248.19;;;12.46;59.87
60069;BME280;45945;53.350;55.922;2022-08-19T02:17:59;101244.06;;;12.53;59.68
60069;BME280;45945;53.350;55.922;2022-08-19T02:19:00;101241.38;;;12.51;58.96
60069;BME280;45945;53.350;55.922;2022-08-19T02:20:02;101243.09;;;12.51;58.87
60069;BME280;45945;53.350;55.922;2022-08-19T02:21:03;101241.25;;;12.48;59.22
60069;BME280;45945;53.350;55.922;2022-08-19T02:22:04;101252.72;;;12.50;59.94
60069;BME280;45945;53.350;55.922;2022-08-19T02:23:06;101251.38;;;12.62;59.33
60069;BME280;45945;53.350;55.922;2022-08-19T02:24:07;101251.63;;;12.68;58.72
60069;BME280;45945;53.350;55.922;2022-08-19T02:25:12;101256.22;;;12.73;58.41
60069;BME280;45945;53.350;55.922;2022-08-19T02:26:14;101252.22;;;12.83;57.84
60069;BME280;45945;53.350;55.922;2022-08-19T02:27:15;101244.94;;;12.76;58.25
60069;BME280;45945;53.350;55.922;2022-08-19T02:28:17;101254.97;;;12.86;58.53
60069;BME280;45945;53.350;55.922;2022-08-19T02:29:18;101248.31;;;12.96;58.05
60069;BME280;45945;53.350;55.922;2022-08-19T02:30:19;101252.28;;;12.85;57.49
60069;BME280;45945;53.350;55.922;2022-08-19T02:31:22;101241.09;;;12.90;56.57
60069;BME280;45945;53.350;55.922;2022-08-19T02:32:23;101244.84;;;12.97;56.42
60069;BME280;45945;53.350;55.922;2022-08-19T02:33:24;101243.22;;;13.01;55.58
60069;BME280;45945;53.350;55.922;2022-08-19T02:34:25;101242.34;;;13.00;55.46
60069;BME280;45945;53.350;55.922;2022-08-19T02:35:26;101232.72;;;13.01;55.21
60069;BME280;45945;53.350;55.922;2022-08-19T02:36:27;101244.03;;;13.00;53.87
60069;BME280;45945;53.350;55.922;2022-08-19T02:37:28;101249.47;;;13.04;53.47
60069;BME280;45945;53.350;55.922;2022-08-19T02:38:48;101253.28;;;13.12;53.42
60069;BME280;45945;53.350;55.922;2022-08-19T02:39:49;101256.84;;;13.15;54.37
60069;BME280;45945;53.350;55.922;2022-08-19T02:40:58;101252.56;;;13.17;53.45
60069;BME280;45945;53.350;55.922;2022-08-19T02:42:00;101264.06;;;13.20;53.13
60069;BME280;45945;53.350;55.922;2022-08-19T02:43:05;101261.75;;;13.29;52.80
60069;BME280;45945;53.350;55.922;2022-08-19T02:44:08;101259.69;;;13.21;53.15
60069;BME280;45945;53.350;55.922;2022-08-19T02:45:09;101252.16;;;13.30;53.25
60069;BME280;45945;53.350;55.922;2022-08-19T02:46:12;101252.22;;;13.32;52.98
60069;BME280;45945;53.350;55.922;2022-08-19T02:47:16;101250.03;;;13.44;53.09
60069;BME280;45945;53.350;55.922;2022-08-19T02:48:19;101257.13;;;13.46;52.38
60069;BME280;45945;53.350;55.922;2022-08-19T02:49:20;101243.94;;;13.45;51.68
60069;BME280;45945;53.350;55.922;2022-08-19T02:50:21;101252.09;;;13.53;51.53
60069;BME280;45945;53.350;55.922;2022-08-19T02:51:25;101256.84;;;13.39;51.20
60069;BME280;45945;53.350;55.922;2022-08-19T02:52:26;101259.75;;;13.46;51.32
60069;BME280;45945;53.350;55.922;2022-08-19T02:53:29;101258.41;;;13.58;51.03
60069;BME280;45945;53.350;55.922;2022-08-19T02:54:30;101260.59;;;13.71;51.25
60069;BME280;45945;53.350;55.922;2022-08-19T02:55:30;101256.22;;;13.72;50.69
60069;BME280;45945;53.350;55.922;2022-08-19T02:56:34;101263.47;;;13.79;51.14
60069;BME280;45945;53.350;55.922;2022-08-19T02:57:36;101268.91;;;13.83;51.02
60069;BME280;45945;53.350;55.922;2022-08-19T02:58:37;101265.84;;;13.97;50.47
60069;BME280;45945;53.350;55.922;2022-08-19T02:59:38;101266.66;;;14.23;50.07
60069;BME280;45945;53.350;55.922;2022-08-19T03:00:49;101258.41;;;14.40;49.92
60069;BME280;45945;53.350;55.922;2022-08-19T03:01:50;101273.84;;;14.56;49.22
60069;BME280;45945;53.350;55.922;2022-08-19T03:02:51;101276.06;;;14.71;48.59
60069;BME280;45945;53.350;55.922;2022-08-19T03:03:53;101274.06;;;14.93;47.90
60069;BME280;45945;53.350;55.922;2022-08-19T03:04:54;101266.88;;;15.17;47.79
60069;BME280;45945;53.350;55.922;2022-08-19T03:06:13;101276.63;;;15.21;47.68
60069;BME280;45945;53.350;55.922;2022-08-19T03:07:15;101273.53;;;15.36;47.55
60069;BME280;45945;53.350;55.922;2022-08-19T03:08:16;101272.78;;;15.40;46.73
60069;BME280;45945;53.350;55.922;2022-08-19T03:09:18;101271.50;;;15.58;46.54
60069;BME280;45945;53.350;55.922;2022-08-19T03:10:20;101277.59;;;15.89;45.72
60069;BME280;45945;53.350;55.922;2022-08-19T03:11:23;101267.25;;;15.98;45.34
60069;BME280;45945;53.350;55.922;2022-08-19T03:12:24;101264.81;;;16.06;45.84
60069;BME280;45945;53.350;55.922;2022-08-19T03:13:25;101264.63;;;16.36;45.60
60069;BME280;45945;53.350;55.922;2022-08-19T03:14:26;101274.03;;;16.63;43.88
60069;BME280;45945;53.350;55.922;2022-08-19T03:15:30;101274.22;;;16.72;43.56
60069;BME280;45945;53.350;55.922;2022-08-19T03:16:33;101267.34;;;16.79;43.08
60069;BME280;45945;53.350;55.922;2022-08-19T03:17:35;101270.03;;;16.42;43.31
60069;BME280;45945;53.350;55.922;2022-08-19T03:18:37;101272.16;;;16.57;43.68
60069;BME280;45945;53.350;55.922;2022-08-19T03:19:37;101275.78;;;17.02;42.74
60069;BME280;45945;53.350;55.922;2022-08-19T03:20:46;101277.75;;;17.12;41.89
60069;BME280;45945;53.350;55.922;2022-08-19T03:21:48;101277.63;;;17.06;42.30
60069;BME280;45945;53.350;55.922;2022-08-19T03:22:49;101273.53;;;17.22;42.63
60069;BME280;45945;53.350;55.922;2022-08-19T03:23:54;101285.44;;;17.46;42.23
60069;BME280;45945;53.350;55.922;2022-08-19T03:24:55;101278.84;;;17.71;41.32
60069;BME280;45945;53.350;55.922;2022-08-19T03:25:57;101281.06;;;17.95;40.49
60069;BME280;45945;53.350;55.922;2022-08-19T03:26:58;101283.88;;;18.06;40.41
60069;BME280;45945;53.350;55.922;2022-08-19T03:27:59;101281.63;;;18.31;40.10
60069;BME280;45945;53.350;55.922;2022-08-19T03:29:04;101281.00;;;18.49;39.53
60069;BME280;45945;53.350;55.922;2022-08-19T03:30:06;101284.75;;;18.63;39.32
60069;BME280;45945;53.350;55.922;2022-08-19T03:31:11;101288.84;;;18.42;39.78
60069;BME280;45945;53.350;55.922;2022-08-19T03:32:12;101288.06;;;17.44;41.11
60069;BME280;45945;53.350;55.922;2022-08-19T03:33:13;101289.97;;;18.00;40.45
60069;BME280;45945;53.350;55.922;2022-08-19T03:34:17;101280.69;;;18.27;40.92
60069;BME280;45945;53.350;55.922;2022-08-19T03:35:19;101287.03;;;18.40;40.08
60069;BME280;45945;53.350;55.922;2022-08-19T03:36:25;101289.66;;;18.38;40.43
60069;BME280;45945;53.350;55.922;2022-08-19T03:37:27;101284.63;;;17.97;39.08
60069;BME280;45945;53.350;55.922;2022-08-19T03:38:29;101290.41;;;18.30;39.71
60069;BME280;45945;53.350;55.922;2022-08-19T03:39:30;101292.63;;;18.57;39.62
60069;BME280;45945;53.350;55.922;2022-08-19T03:40:31;101289.72;;;18.43;39.59
60069;BME280;45945;53.350;55.922;2022-08-19T03:41:36;101290.69;;;19.12;38.63
60069;BME280;45945;53.350;55.922;2022-08-19T03:42:38;101296.03;;;19.17;38.22
60069;BME280;45945;53.350;55.922;2022-08-19T03:43:40;101299.50;;;19.08;37.63
60069;BME280;45945;53.350;55.922;2022-08-19T03:44:41;101292.44;;;19.09;38.58
60069;BME280;45945;53.350;55.922;2022-08-19T03:45:45;101292.06;;;19.56;37.42
60069;BME280;45945;53.350;55.922;2022-08-19T03:46:51;101293.22;;;19.81;36.79
60069;BME280;45945;53.350;55.922;2022-08-19T03:47:53;101289.97;;;19.26;37.75
60069;BME280;45945;53.350;55.922;2022-08-19T03:48:55;101281.94;;;19.18;38.07
60069;BME280;45945;53.350;55.922;2022-08-19T03:49:57;101288.75;;;19.77;37.17
60069;BME280;45945;53.350;55.922;2022-08-19T03:50:58;101287.13;;;19.90;36.72
60069;BME280;45945;53.350;55.922;2022-08-19T03:52:00;101295.50;;;20.43;36.19
60069;BME280;45945;53.350;55.922;2022-08-19T03:53:01;101291.47;;;19.83;36.55
60069;BME280;45945;53.350;55.922;2022-08-19T03:54:04;101303.81;;;19.80;36.55
60069;BME280;45945;53.350;55.922;2022-08-19T03:55:06;101305.06;;;20.22;36.44
60069;BME280;45945;53.350;55.922;2022-08-19T03:56:08;101310.53;;;20.44;36.00
60069;BME280;45945;53.350;55.922;2022-08-19T03:57:09;101307.09;;;20.59;35.21
60069;BME280;45945;53.350;55.922;2022-08-19T03:58:10;101318.63;;;20.62;34.84
60069;BME280;45945;53.350;55.922;2022-08-19T03:59:15;101305.50;;;20.87;34.37
60069;BME280;45945;53.350;55.922;2022-08-19T04:00:16;101312.50;;;20.73;34.52
60069;BME280;45945;53.350;55.922;2022-08-19T04:01:23;101312.50;;;20.73;34.67
60069;BME280;45945;53.350;55.922;2022-08-19T04:02:24;101305.09;;;20.27;34.63
60069;BME280;45945;53.350;55.922;2022-08-19T04:03:25;101315.81;;;20.41;34.86
60069;BME280;45945;53.350;55.922;2022-08-19T04:04:28;101322.09;;;20.47;34.91
60069;BME280;45945;53.350;55.922;2022-08-19T04:05:29;101312.16;;;20.23;34.96
60069;BME280;45945;53.350;55.922;2022-08-19T04:06:33;101321.16;;;20.47;35.95
60069;BME280;45945;53.350;55.922;2022-08-19T04:07:35;101320.50;;;19.70;35.82
60069;BME280;45945;53.350;55.922;2022-08-19T04:08:36;101316.84;;;20.58;35.17
60069;BME280;45945;53.350;55.922;2022-08-19T04:09:37;101308.19;;;20.93;34.64
60069;BME280;45945;53.350;55.922;2022-08-19T05:45:39;101337.72;;;27.35;26.14
60069;BME280;45945;53.350;55.922;2022-08-19T05:46:43;101349.06;;;27.50;25.07
60069;BME280;45945;53.350;55.922;2022-08-19T05:47:47;101341.38;;;27.31;25.00
60069;BME280;45945;53.350;55.922;2022-08-19T05:48:51;101342.81;;;27.48;25.71
60069;BME280;45945;53.350;55.922;2022-08-19T05:49:52;101334.38;;;27.24;25.47
60069;BME280;45945;53.350;55.922;2022-08-19T05:50:53;101344.81;;;26.94;25.75
60069;BME280;45945;53.350;55.922;2022-08-19T05:51:54;101350.53;;;25.68;26.84
60069;BME280;45945;53.350;55.922;2022-08-19T05:52:56;101338.13;;;26.72;26.82
60069;BME280;45945;53.350;55.922;2022-08-19T05:53:57;101343.19;;;26.37;26.73
60069;BME280;45945;53.350;55.922;2022-08-19T05:54:58;101339.91;;;26.21;26.74
60069;BME280;45945;53.350;55.922;2022-08-19T05:56:10;101330.28;;;26.59;26.51
60069;BME280;45945;53.350;55.922;2022-08-19T05:57:12;101341.47;;;26.31;27.10
60069;BME280;45945;53.350;55.922;2022-08-19T05:58:12;101334.47;;;26.76;26.92
60069;BME280;45945;53.350;55.922;2022-08-19T05:59:15;101337.28;;;27.13;26.44
60069;BME280;45945;53.350;55.922;2022-08-19T06:00:17;101337.06;;;27.24;26.22
60069;BME280;45945;53.350;55.922;2022-08-19T06:01:18;101342.56;;;27.18;26.53
60069;BME280;45945;53.350;55.922;2022-08-19T06:02:19;101336.56;;;27.86;24.76
60069;BME280;45945;53.350;55.922;2022-08-19T06:03:21;101326.38;;;28.35;24.74
60069;BME280;45945;53.350;55.922;2022-08-19T06:04:22;101346.69;;;28.47;23.83
60069;BME280;45945;53.350;55.922;2022-08-19T06:05:23;101338.56;;;26.47;25.12
60069;BME280;45945;53.350;55.922;2022-08-19T06:06:24;101340.81;;;26.70;25.65
60069;BME280;45945;53.350;55.922;2022-08-19T06:07:25;101340.16;;;26.56;25.69
60069;BME280;45945;53.350;55.922;2022-08-19T06:08:26;101343.56;;;27.12;25.05
60069;BME280;45945;53.350;55.922;2022-08-19T06:09:28;101343.44;;;27.18;24.97
60069;BME280;45945;53.350;55.922;2022-08-19T06:10:29;101338.28;;;27.51;25.44
60069;BME280;45945;53.350;55.922;2022-08-19T06:11:37;101339.72;;;26.82;26.37
60069;BME280;45945;53.350;55.922;2022-08-19T06:12:38;101341.50;;;26.80;25.74
60069;BME280;45945;53.350;55.922;2022-08-19T06:13:40;101337.41;;;27.51;25.24
60069;BME280;45945;53.350;55.922;2022-08-19T06:14:40;101336.78;;;27.38;25.24
60069;BME280;45945;53.350;55.922;2022-08-19T06:15:42;101324.00;;;27.87;25.22
60069;BME280;45945;53.350;55.922;2022-08-19T06:16:45;101339.19;;;28.61;24.49
60069;BME280;45945;53.350;55.922;2022-08-19T06:17:48;101331.88;;;27.96;24.93
60069;BME280;45945;53.350;55.922;2022-08-19T06:18:53;101340.81;;;27.15;24.77
60069;BME280;45945;53.350;55.922;2022-08-19T06:19:54;101335.50;;;26.65;26.40
60069;BME280;45945;53.350;55.922;2022-08-19T06:20:55;101324.00;;;26.60;26.27
60069;BME280;45945;53.350;55.922;2022-08-19T06:21:58;101330.06;;;26.72;27.20
60069;BME280;45945;53.350;55.922;2022-08-19T06:23:00;101333.56;;;27.61;25.67
60069;BME280;45945;53.350;55.922;2022-08-19T06:24:01;101334.69;;;27.52;25.56
60069;BME280;45945;53.350;55.922;2022-08-19T06:25:03;101330.66;;;28.08;24.78
60069;BME280;45945;53.350;55.922;2022-08-19T06:26:04;101334.56;;;28.31;24.42
60069;BME280;45945;53.350;55.922;2022-08-19T06:27:05;101331.53;;;28.10;25.31
60069;BME280;45945;53.350;55.922;2022-08-19T06:28:06;101330.88;;;28.00;24.93
60069;BME280;45945;53.350;55.922;2022-08-19T06:29:09;101328.84;;;28.10;25.53
60069;BME280;45945;53.350;55.922;2022-08-19T06:30:11;101321.50;;;28.51;24.54
60069;BME280;45945;53.350;55.922;2022-08-19T06:31:23;101318.81;;;28.17;24.95
60069;BME280;45945;53.350;55.922;2022-08-19T06:32:25;101325.34;;;29.07;24.03
60069;BME280;45945;53.350;55.922;2022-08-19T06:33:26;101326.03;;;28.82;23.72
60069;BME280;45945;53.350;55.922;2022-08-19T06:34:28;101325.66;;;28.64;23.46
60069;BME280;45945;53.350;55.922;2022-08-19T06:35:29;101326.94;;;28.14;24.36
60069;BME280;45945;53.350;55.922;2022-08-19T06:36:36;101310.72;;;27.81;24.73
60069;BME280;45945;53.350;55.922;2022-08-19T06:37:38;101314.72;;;28.36;24.87
60069;BME280;45945;53.350;55.922;2022-08-19T06:38:39;101316.84;;;28.23;24.21
60069;BME280;45945;53.350;55.922;2022-08-19T06:39:42;101317.63;;;28.63;24.92
60069;BME280;45945;53.350;55.922;2022-08-19T06:40:43;101309.16;;;28.77;24.81
60069;BME280;45945;53.350;55.922;2022-08-19T06:41:47;101310.97;;;28.07;24.07
60069;BME280;45945;53.350;55.922;2022-08-19T06:42:51;101309.47;;;28.32;24.69
60069;BME280;45945;53.350;55.922;2022-08-19T06:43:54;101303.03;;;28.72;25.35
60069;BME280;45945;53.350;55.922;2022-08-19T06:44:55;101312.00;;;29.02;25.11
60069;BME280;45945;53.350;55.922;2022-08-19T06:45:56;101316.56;;;28.69;24.56
60069;BME280;45945;53.350;55.922;2022-08-19T06:46:57;101312.38;;;29.20;24.09
60069;BME280;45945;53.350;55.922;2022-08-19T06:47:58;101312.47;;;28.54;24.73
60069;BME280;45945;53.350;55.922;2022-08-19T06:48:59;101319.91;;;28.42;25.25
60069;BME280;45945;53.350;55.922;2022-08-19T06:50:01;101310.31;;;27.60;25.30
60069;BME280;45945;53.350;55.922;2022-08-19T06:51:05;101327.63;;;27.04;25.86
60069;BME280;45945;53.350;55.922;2022-08-19T06:52:07;101327.31;;;28.00;24.61
60069;BME280;45945;53.350;55.922;2022-08-19T06:53:08;101320.97;;;28.37;24.08
60069;BME280;45945;53.350;55.922;2022-08-19T06:54:10;101324.41;;;28.76;24.22
60069;BME280;45945;53.350;55.922;2022-08-19T06:55:11;101327.81;;;29.14;23.83
60069;BME280;45945;53.350;55.922;2022-08-19T06:56:17;101325.91;;;28.54;25.35
60069;BME280;45945;53.350;55.922;2022-08-19T06:57:18;101327.19;;;28.04;24.63